createdAt,value
2022-11-30T00:01:50.000Z,26.63
2022-11-30T00:04:17.807Z,27.77
2022-11-30T00:06:47.024Z,26.25
2022-11-30T00:09:15.067Z,27.02
2022-11-30T00:11:42.907Z,27.20
2022-11-30T00:14:10.686Z,29.38
2022-11-30T00:16:38.644Z,26.90
2022-11-30T00:19:06.469Z,24.35
2022-11-30T00:21:34.256Z,25.58
2022-11-30T00:24:03.374Z,29.80
2022-11-30T00:26:31.128Z,25.88
2022-11-30T00:28:58.898Z,24.38
2022-11-30T00:31:28.057Z,26.85
2022-11-30T00:33:56.175Z,24.08
2022-11-30T00:36:24.174Z,26.50
2022-11-30T00:38:53.124Z,28.20
2022-11-30T00:41:22.603Z,24.48
2022-11-30T00:43:50.369Z,27.48
2022-11-30T00:46:18.412Z,26.35
2022-11-30T00:48:46.423Z,26.23
2022-11-30T00:51:16.173Z,26.75
2022-11-30T00:53:44.634Z,25.13
2022-11-30T00:56:12.383Z,27.50
2022-11-30T00:58:41.983Z,25.70
2022-11-30T01:01:10.117Z,23.58
2022-11-30T01:03:38.005Z,25.75
2022-11-30T01:06:06.885Z,22.02
2022-11-30T01:08:35.101Z,24.90
2022-11-30T01:11:07.621Z,23.30
2022-11-30T01:13:35.464Z,23.95
2022-11-30T01:16:10.582Z,22.67
2022-11-30T01:18:39.116Z,24.85
2022-11-30T01:21:08.144Z,27.45
2022-11-30T01:23:35.985Z,26.95
2022-11-30T01:26:04.035Z,26.00
2022-11-30T01:28:31.904Z,26.77
2022-11-30T01:31:00.385Z,26.10
2022-11-30T01:33:29.647Z,25.27
2022-11-30T01:36:01.964Z,24.52
2022-11-30T01:38:33.402Z,28.50
2022-11-30T01:41:01.315Z,23.88
2022-11-30T01:43:39.827Z,26.55
2022-11-30T01:46:18.843Z,25.88
2022-11-30T01:48:51.517Z,27.20
2022-11-30T01:51:19.369Z,24.80
2022-11-30T01:53:47.333Z,24.67
2022-11-30T01:56:15.402Z,23.52
2022-11-30T01:58:46.142Z,26.30
2022-11-30T02:01:14.026Z,27.88
2022-11-30T02:03:50.113Z,28.25
2022-11-30T02:06:20.012Z,27.27
2022-11-30T02:08:47.944Z,26.73
2022-11-30T02:11:17.036Z,26.92
2022-11-30T02:14:02.757Z,24.92
2022-11-30T02:16:41.056Z,28.77
2022-11-30T02:19:29.805Z,29.52
2022-11-30T02:22:04.600Z,29.02
2022-11-30T02:24:50.831Z,28.27
2022-11-30T02:27:38.564Z,34.42
2022-11-30T02:30:11.372Z,28.90
2022-11-30T02:32:47.510Z,29.25
2022-11-30T02:35:18.281Z,32.53
2022-11-30T02:37:47.168Z,35.17
2022-11-30T02:40:16.958Z,35.83
2022-11-30T02:42:44.803Z,30.35
2022-11-30T02:45:14.572Z,31.48
2022-11-30T02:47:47.884Z,35.50
2022-11-30T02:50:19.684Z,32.33
2022-11-30T02:52:48.043Z,34.17
2022-11-30T02:55:18.429Z,35.90
2022-11-30T02:57:46.574Z,33.60
2022-11-30T03:00:17.160Z,37.55
2022-11-30T03:02:45.005Z,32.85
2022-11-30T03:05:12.830Z,33.20
2022-11-30T03:07:40.713Z,33.63
2022-11-30T03:10:10.171Z,33.63
2022-11-30T03:12:38.548Z,31.67
2022-11-30T03:15:07.428Z,28.63
2022-11-30T03:17:36.636Z,27.38
2022-11-30T03:20:05.272Z,29.10
2022-11-30T03:22:33.082Z,27.35
2022-11-30T03:25:00.855Z,27.60
2022-11-30T03:27:28.747Z,27.02
2022-11-30T03:29:56.639Z,28.40
2022-11-30T03:32:24.576Z,29.35
2022-11-30T03:34:53.765Z,27.20
2022-11-30T03:37:21.573Z,28.77
2022-11-30T03:39:53.575Z,27.90
2022-11-30T03:42:24.364Z,23.15
2022-11-30T03:44:52.190Z,26.30
2022-11-30T03:47:20.014Z,25.73
2022-11-30T03:49:47.993Z,28.52
2022-11-30T03:52:17.194Z,28.40
2022-11-30T03:54:45.277Z,29.85
2022-11-30T03:57:13.376Z,30.52
2022-11-30T03:59:41.157Z,30.08
2022-11-30T04:02:08.991Z,29.88
2022-11-30T04:04:36.771Z,32.13
2022-11-30T04:09:46.644Z,33.25
2022-11-30T04:12:14.457Z,31.95
2022-11-30T04:14:42.266Z,35.97
2022-11-30T04:17:10.094Z,34.90
2022-11-30T04:19:37.870Z,35.58
2022-11-30T04:22:05.689Z,36.92
2022-11-30T04:24:33.507Z,36.10
2022-11-30T04:27:02.711Z,37.92
2022-11-30T04:29:30.499Z,34.45
2022-11-30T04:31:58.495Z,37.05
2022-11-30T04:34:28.352Z,35.58
2022-11-30T04:37:00.287Z,34.97
2022-11-30T04:39:28.616Z,34.20
2022-11-30T04:41:56.551Z,38.97
2022-11-30T04:44:26.080Z,36.97
2022-11-30T04:46:54.052Z,40.72
2022-11-30T04:49:21.903Z,37.25
2022-11-30T04:51:49.661Z,40.38
2022-11-30T04:54:17.746Z,39.58
2022-11-30T04:56:45.496Z,38.90
2022-11-30T04:59:13.622Z,36.53
2022-11-30T05:01:43.184Z,30.27
2022-11-30T05:04:11.715Z,26.67
2022-11-30T05:06:39.629Z,25.77
2022-11-30T05:09:07.639Z,23.73
2022-11-30T05:11:35.459Z,24.35
2022-11-30T05:14:03.259Z,23.70
2022-11-30T05:16:31.200Z,22.83
2022-11-30T05:19:00.392Z,22.00
2022-11-30T05:21:28.179Z,22.42
2022-11-30T05:23:55.975Z,21.38
2022-11-30T05:26:23.933Z,23.00
2022-11-30T05:28:51.719Z,21.17
2022-11-30T05:31:19.660Z,21.83
2022-11-30T05:33:51.833Z,23.17
2022-11-30T05:36:21.918Z,20.83
2022-11-30T05:38:50.142Z,21.52
2022-11-30T05:41:17.932Z,18.88
2022-11-30T05:43:45.737Z,21.98
2022-11-30T05:46:13.647Z,21.27
2022-11-30T05:48:41.506Z,21.42
2022-11-30T05:51:11.510Z,20.30
2022-11-30T05:53:40.818Z,19.92
2022-11-30T05:56:12.615Z,21.48
2022-11-30T05:58:41.263Z,19.58
2022-11-30T06:01:09.300Z,19.85
2022-11-30T06:03:37.411Z,18.27
2022-11-30T06:06:05.522Z,19.73
2022-11-30T06:08:33.418Z,18.33
2022-11-30T06:11:02.930Z,18.17
2022-11-30T06:13:32.456Z,16.55
2022-11-30T06:16:00.557Z,21.40
2022-11-30T06:18:28.571Z,19.38
2022-11-30T06:21:00.066Z,20.70
2022-11-30T06:23:27.857Z,19.95
2022-11-30T06:25:55.686Z,18.52
2022-11-30T06:28:25.170Z,19.63
2022-11-30T06:30:52.965Z,18.75
2022-11-30T06:33:23.904Z,20.40
2022-11-30T06:35:51.946Z,18.42
2022-11-30T06:38:20.668Z,19.80
2022-11-30T06:40:48.685Z,17.83
2022-11-30T06:43:16.808Z,18.30
2022-11-30T06:45:46.713Z,18.73
2022-11-30T06:48:15.148Z,20.55
2022-11-30T06:50:46.973Z,18.95
2022-11-30T06:53:17.998Z,20.23
2022-11-30T06:55:45.803Z,17.70
2022-11-30T06:58:13.662Z,19.48
2022-11-30T07:00:42.881Z,19.55
2022-11-30T07:03:12.947Z,20.08
2022-11-30T07:05:43.993Z,18.05
2022-11-30T07:08:12.231Z,19.30
2022-11-30T07:10:41.627Z,19.92
2022-11-30T07:13:11.892Z,21.67
2022-11-30T07:15:40.189Z,18.15
2022-11-30T07:18:08.443Z,17.35
2022-11-30T07:20:38.516Z,19.00
2022-11-30T07:23:20.470Z,18.40
2022-11-30T07:26:06.470Z,16.08
2022-11-30T07:28:34.960Z,19.38
2022-11-30T07:31:02.881Z,21.23
2022-11-30T07:33:32.509Z,19.75
2022-11-30T07:36:01.658Z,19.45
2022-11-30T07:38:29.416Z,18.60
2022-11-30T07:40:58.922Z,20.48
2022-11-30T07:43:26.868Z,18.27
2022-11-30T07:45:55.133Z,20.73
2022-11-30T07:48:23.491Z,19.50
2022-11-30T07:50:51.576Z,20.92
2022-11-30T07:53:20.734Z,18.08
2022-11-30T07:55:52.747Z,20.55
2022-11-30T07:58:24.580Z,20.35
2022-11-30T08:00:52.833Z,22.02
2022-11-30T08:03:20.665Z,20.48
2022-11-30T08:05:48.454Z,22.15
2022-11-30T08:08:16.336Z,21.83
2022-11-30T08:10:45.442Z,22.27
2022-11-30T08:13:13.305Z,20.77
2022-11-30T08:15:41.155Z,21.75
2022-11-30T08:18:09.127Z,20.80
2022-11-30T08:20:36.896Z,20.98
2022-11-30T08:23:04.762Z,21.80
2022-11-30T08:25:32.593Z,19.45
2022-11-30T08:28:01.935Z,23.80
2022-11-30T08:30:32.838Z,20.23
2022-11-30T08:33:00.877Z,21.75
2022-11-30T08:35:28.620Z,20.27
2022-11-30T08:37:56.484Z,22.75
2022-11-30T08:40:24.404Z,21.90
2022-11-30T08:42:52.414Z,21.20
2022-11-30T08:45:21.580Z,24.02
2022-11-30T08:47:49.372Z,22.70
2022-11-30T08:50:17.192Z,21.42
2022-11-30T08:52:45.091Z,20.77
2022-11-30T08:55:15.631Z,23.52
2022-11-30T08:57:46.345Z,27.00
2022-11-30T09:00:15.283Z,26.52
2022-11-30T09:02:44.537Z,28.48
2022-11-30T09:05:12.756Z,27.00
2022-11-30T09:07:40.879Z,26.92
2022-11-30T09:10:09.631Z,29.73
2022-11-30T09:12:38.356Z,29.35
2022-11-30T09:15:07.444Z,31.25
2022-11-30T09:17:35.620Z,30.10
2022-11-30T09:20:05.751Z,30.95
2022-11-30T09:22:33.545Z,28.70
2022-11-30T09:25:01.476Z,30.88
2022-11-30T09:27:32.083Z,31.25
2022-11-30T09:30:00.236Z,32.25
2022-11-30T09:32:29.090Z,29.67
2022-11-30T09:34:56.935Z,30.27
2022-11-30T09:37:26.089Z,34.25
2022-11-30T09:39:53.869Z,32.33
2022-11-30T09:42:42.523Z,34.47
2022-11-30T09:45:17.758Z,36.97
2022-11-30T09:48:13.086Z,33.35
2022-11-30T09:50:44.935Z,36.97
2022-11-30T09:53:24.676Z,38.75
2022-11-30T09:55:57.651Z,38.92
2022-11-30T09:58:37.578Z,36.05
2022-11-30T10:01:14.534Z,35.80
2022-11-30T10:03:42.532Z,38.08
2022-11-30T10:06:16.213Z,35.83
2022-11-30T10:09:08.230Z,39.50
2022-11-30T10:11:46.554Z,36.72
2022-11-30T10:14:27.634Z,38.00
2022-11-30T10:17:02.820Z,38.85
2022-11-30T10:19:47.357Z,39.22
2022-11-30T10:22:25.113Z,39.00
2022-11-30T10:25:11.456Z,41.80
2022-11-30T10:27:49.964Z,38.58
2022-11-30T10:30:22.110Z,38.42
2022-11-30T10:32:53.726Z,40.53
2022-11-30T10:35:30.226Z,36.20
2022-11-30T10:38:01.213Z,37.40
2022-11-30T10:40:38.656Z,34.78
2022-11-30T10:43:18.660Z,35.13
2022-11-30T10:45:49.703Z,35.42
2022-11-30T10:48:23.218Z,36.17
2022-11-30T10:50:52.380Z,37.97
2022-11-30T10:53:20.377Z,36.35
2022-11-30T10:55:57.168Z,34.90
2022-11-30T10:58:29.344Z,32.88
2022-11-30T11:01:06.079Z,30.95
2022-11-30T11:03:34.643Z,30.60
2022-11-30T11:06:15.532Z,32.67
2022-11-30T11:08:45.469Z,31.80
2022-11-30T11:11:31.200Z,28.45
2022-11-30T11:14:18.852Z,28.92
2022-11-30T11:16:55.544Z,27.38
2022-11-30T11:19:26.113Z,26.35
2022-11-30T11:21:54.828Z,25.90
2022-11-30T11:24:27.842Z,25.60
2022-11-30T11:26:58.170Z,25.20
2022-11-30T11:29:33.293Z,24.95
2022-11-30T11:32:10.491Z,24.70
2022-11-30T11:34:38.373Z,26.70
2022-11-30T11:37:08.662Z,22.70
2022-11-30T11:39:36.999Z,23.75
2022-11-30T11:42:06.515Z,25.27
2022-11-30T11:44:34.400Z,24.67
2022-11-30T11:47:09.527Z,26.20
2022-11-30T11:49:38.977Z,27.05
2022-11-30T11:52:15.458Z,24.42
2022-11-30T11:54:50.854Z,23.05
2022-11-30T11:57:24.565Z,24.35
2022-11-30T11:59:58.177Z,24.63
2022-11-30T12:02:35.637Z,24.15
2022-11-30T12:05:11.309Z,24.63
2022-11-30T12:07:45.182Z,25.13
2022-11-30T12:13:19.773Z,26.88
2022-11-30T12:16:00.284Z,24.35
2022-11-30T12:18:36.892Z,25.90
2022-11-30T12:21:13.098Z,27.65
2022-11-30T12:23:56.357Z,25.83
2022-11-30T12:26:35.205Z,25.23
2022-11-30T12:29:22.533Z,24.42
2022-11-30T12:32:09.969Z,24.63
2022-11-30T12:34:57.855Z,23.25
2022-11-30T12:37:37.471Z,24.30
2022-11-30T12:40:21.946Z,25.70
2022-11-30T12:42:57.905Z,25.02
2022-11-30T12:45:34.976Z,25.77
2022-11-30T12:48:09.751Z,24.00
2022-11-30T12:50:52.657Z,24.35
2022-11-30T12:53:28.932Z,26.13
2022-11-30T12:56:11.981Z,23.85
2022-11-30T12:58:48.626Z,23.80
2022-11-30T13:01:33.076Z,21.67
2022-11-30T13:04:07.641Z,24.27
2022-11-30T13:06:40.439Z,23.90
2022-11-30T13:09:19.722Z,21.88
2022-11-30T13:11:53.857Z,25.17
2022-11-30T13:14:25.182Z,27.55
2022-11-30T13:17:02.210Z,27.42
2022-11-30T13:19:47.188Z,27.55
2022-11-30T13:22:22.303Z,27.13
2022-11-30T13:24:58.811Z,28.58
2022-11-30T13:27:35.685Z,27.95
2022-11-30T13:30:39.726Z,26.60
2022-11-30T13:33:49.356Z,27.85
2022-11-30T13:36:32.851Z,25.15
2022-11-30T13:39:31.525Z,24.67
2022-11-30T13:42:34.755Z,26.17
2022-11-30T13:45:33.255Z,22.63
2022-11-30T13:48:17.343Z,22.45
2022-11-30T13:50:49.086Z,24.15
2022-11-30T13:53:27.526Z,24.75
2022-11-30T13:56:01.652Z,24.38
2022-11-30T13:58:30.558Z,25.08
2022-11-30T14:01:22.603Z,22.73
2022-11-30T14:04:36.169Z,23.73
2022-11-30T14:07:26.262Z,21.92
2022-11-30T14:10:00.003Z,22.73
2022-11-30T14:12:58.800Z,23.52
2022-11-30T14:16:00.482Z,22.40
2022-11-30T14:18:41.195Z,24.63
2022-11-30T14:21:19.102Z,26.25
2022-11-30T14:23:55.295Z,24.80
2022-11-30T14:26:28.520Z,25.45
2022-11-30T14:29:03.379Z,24.15
2022-11-30T14:31:35.218Z,22.92
2022-11-30T14:34:10.205Z,26.10
2022-11-30T14:36:42.765Z,23.58
2022-11-30T14:39:26.779Z,21.83
2022-11-30T14:41:55.118Z,24.90
2022-11-30T14:44:22.973Z,24.50
2022-11-30T14:46:50.998Z,24.45
2022-11-30T14:49:21.117Z,23.58
2022-11-30T14:51:52.953Z,27.17
2022-11-30T14:54:37.804Z,25.17
2022-11-30T14:57:13.931Z,22.33
2022-11-30T14:59:49.254Z,25.23
2022-11-30T15:02:29.706Z,27.50
2022-11-30T15:04:59.783Z,26.75
2022-11-30T15:07:30.132Z,23.95
2022-11-30T15:10:04.828Z,24.10
2022-11-30T15:12:33.548Z,24.55
2022-11-30T15:15:15.307Z,23.25
2022-11-30T15:17:54.904Z,24.35
2022-11-30T15:20:30.196Z,24.38
2022-11-30T15:22:59.934Z,25.60
2022-11-30T15:25:41.844Z,22.65
2022-11-30T15:28:17.211Z,21.67
2022-11-30T15:30:49.990Z,21.50
2022-11-30T15:33:21.146Z,21.92
2022-11-30T15:36:15.905Z,22.80
2022-11-30T15:38:40.083Z,21.42
2022-11-30T15:41:19.967Z,19.48
2022-11-30T15:43:52.187Z,19.40
2022-11-30T15:46:32.649Z,20.35
2022-11-30T15:49:17.675Z,20.42
2022-11-30T15:51:47.380Z,21.23
2022-11-30T15:54:15.532Z,18.27
2022-11-30T15:56:57.498Z,22.05
2022-11-30T15:59:28.845Z,18.85
2022-11-30T16:02:08.438Z,19.98
2022-11-30T16:05:06.510Z,20.50
2022-11-30T16:07:39.486Z,18.15
2022-11-30T16:10:14.701Z,18.27
2022-11-30T16:12:44.911Z,20.63
2022-11-30T16:15:18.462Z,20.63
2022-11-30T16:17:46.715Z,19.88
2022-11-30T16:20:15.980Z,22.58
2022-11-30T16:22:45.144Z,20.70
2022-11-30T16:25:14.918Z,21.25
2022-11-30T16:27:44.851Z,22.35
2022-11-30T16:30:16.996Z,22.50
2022-11-30T16:32:45.486Z,21.33
2022-11-30T16:35:20.147Z,26.27
2022-11-30T16:37:48.249Z,21.80
2022-11-30T16:40:16.501Z,21.27
2022-11-30T16:42:45.932Z,21.00
2022-11-30T16:45:16.874Z,22.60
2022-11-30T16:47:45.072Z,22.45
2022-11-30T16:50:14.673Z,25.05
2022-11-30T16:52:43.587Z,26.23
2022-11-30T16:55:14.952Z,24.52
2022-11-30T16:57:43.183Z,23.65
2022-11-30T17:00:15.576Z,24.63
2022-11-30T17:02:49.681Z,22.80
2022-11-30T17:05:17.893Z,24.80
2022-11-30T17:07:45.894Z,25.75
2022-11-30T17:10:14.106Z,22.38
2022-11-30T17:12:42.113Z,25.25
2022-11-30T17:15:16.432Z,21.13
2022-11-30T17:17:44.599Z,24.02
2022-11-30T17:20:14.115Z,26.52
2022-11-30T17:22:43.828Z,22.17
2022-11-30T17:25:15.991Z,25.15
2022-11-30T17:27:43.842Z,23.38
2022-11-30T17:30:14.856Z,25.08
2022-11-30T17:32:42.672Z,25.15
2022-11-30T17:35:11.322Z,25.33
2022-11-30T17:37:39.619Z,23.30
2022-11-30T17:40:11.421Z,24.65
2022-11-30T17:42:39.325Z,24.15
2022-11-30T17:45:08.177Z,23.75
2022-11-30T17:47:37.596Z,24.65
2022-11-30T17:50:06.760Z,26.45
2022-11-30T17:52:34.635Z,25.25
2022-11-30T17:55:03.323Z,26.98
2022-11-30T17:57:31.878Z,26.00
2022-11-30T17:59:59.776Z,24.83
2022-11-30T18:02:27.646Z,27.75
2022-11-30T18:04:56.844Z,26.25
2022-11-30T18:07:25.094Z,26.73
2022-11-30T18:09:52.894Z,32.33
2022-11-30T18:12:20.736Z,29.63
2022-11-30T18:14:49.222Z,29.40
2022-11-30T18:17:17.266Z,28.95
2022-11-30T18:19:45.009Z,28.00
2022-11-30T18:22:14.159Z,26.23
2022-11-30T18:24:41.970Z,28.23
2022-11-30T18:27:09.945Z,27.35
2022-11-30T18:29:38.069Z,30.42
2022-11-30T18:32:06.628Z,29.38
2022-11-30T18:34:34.410Z,29.23
2022-11-30T18:37:02.377Z,28.35
2022-11-30T18:39:31.632Z,29.33
2022-11-30T18:41:59.446Z,27.27
2022-11-30T18:44:27.415Z,29.55
2022-11-30T18:46:55.238Z,30.67
2022-11-30T18:49:23.634Z,33.05
2022-11-30T18:51:51.544Z,29.92
2022-11-30T18:54:19.972Z,32.42
2022-11-30T18:56:49.453Z,28.80
2022-11-30T18:59:18.027Z,28.52
2022-11-30T19:01:46.463Z,31.00
2022-11-30T19:04:14.894Z,28.83
2022-11-30T19:06:43.759Z,26.20
2022-11-30T19:09:14.051Z,27.33
2022-11-30T19:11:43.344Z,26.08
2022-11-30T19:14:14.490Z,25.42
2022-11-30T19:16:43.474Z,26.08
2022-11-30T19:19:13.860Z,20.73
2022-11-30T19:21:44.202Z,23.85
2022-11-30T19:24:12.267Z,21.98
2022-11-30T19:26:40.779Z,25.02
2022-11-30T19:29:09.383Z,21.67
2022-11-30T19:31:38.792Z,24.05
2022-11-30T19:34:12.539Z,25.90
2022-11-30T19:36:41.966Z,24.00
2022-11-30T19:39:11.308Z,24.95
2022-11-30T19:41:39.384Z,24.25
2022-11-30T19:44:07.242Z,22.60
2022-11-30T19:46:35.377Z,19.92
2022-11-30T19:49:04.754Z,19.55
2022-11-30T19:51:33.008Z,21.05
2022-11-30T19:54:01.728Z,19.92
2022-11-30T19:56:31.583Z,19.17
2022-11-30T19:59:05.026Z,19.27
2022-11-30T20:01:35.251Z,19.38
2022-11-30T20:04:05.421Z,16.58
2022-11-30T20:06:35.952Z,18.73
2022-11-30T20:09:05.354Z,16.33
2022-11-30T20:11:34.482Z,16.70
2022-11-30T20:14:02.851Z,15.80
2022-11-30T20:16:31.011Z,17.92
2022-11-30T20:19:01.227Z,14.15
2022-11-30T20:21:32.044Z,13.13
2022-11-30T20:24:02.550Z,15.88
2022-11-30T20:26:32.844Z,12.73
2022-11-30T20:29:02.723Z,12.63
2022-11-30T20:31:32.156Z,11.95
2022-11-30T20:34:00.070Z,12.35
2022-11-30T20:36:28.615Z,11.95
2022-11-30T20:38:59.250Z,14.02
2022-11-30T20:41:27.813Z,13.70
2022-11-30T20:43:58.739Z,13.68
2022-11-30T20:46:29.022Z,12.40
2022-11-30T20:48:57.708Z,12.27
2022-11-30T20:51:31.782Z,12.10
2022-11-30T20:54:03.732Z,12.80
2022-11-30T20:56:31.592Z,11.65
2022-11-30T20:59:03.162Z,11.70
2022-11-30T21:01:31.545Z,12.95
2022-11-30T21:04:02.636Z,13.63
2022-11-30T21:06:31.257Z,13.88
2022-11-30T21:09:00.605Z,11.52
2022-11-30T21:11:30.753Z,10.60
2022-11-30T21:13:59.036Z,11.85
2022-11-30T21:16:29.781Z,11.15
2022-11-30T21:18:59.535Z,12.05
2022-11-30T21:21:30.477Z,10.20
2022-11-30T21:24:00.285Z,12.10
2022-11-30T21:26:31.467Z,13.15
2022-11-30T21:29:02.086Z,11.90
2022-11-30T21:31:31.299Z,12.05
2022-11-30T21:33:59.459Z,10.73
2022-11-30T21:36:27.815Z,12.48
2022-11-30T21:39:04.102Z,11.90
2022-11-30T21:41:35.210Z,12.43
2022-11-30T21:44:03.737Z,12.52
2022-11-30T21:46:33.985Z,11.30
2022-11-30T21:49:02.274Z,13.48
2022-11-30T21:51:32.141Z,12.65
2022-11-30T21:54:05.615Z,11.27
2022-11-30T21:56:37.221Z,11.90
2022-11-30T21:59:06.904Z,12.85
2022-11-30T22:01:36.647Z,12.13
2022-11-30T22:04:06.819Z,13.23
2022-11-30T22:06:39.964Z,12.57
2022-11-30T22:09:09.710Z,14.70
2022-11-30T22:11:41.168Z,13.85
2022-11-30T22:14:12.618Z,14.02
2022-11-30T22:16:40.812Z,13.88
2022-11-30T22:19:09.268Z,14.05
2022-11-30T22:21:37.266Z,12.52
2022-11-30T22:24:06.688Z,13.73
2022-11-30T22:26:36.558Z,15.18
2022-11-30T22:29:07.949Z,15.27
2022-11-30T22:31:37.868Z,15.07
2022-11-30T22:34:06.292Z,14.85
2022-11-30T22:36:36.593Z,13.02
2022-11-30T22:39:06.568Z,14.75
2022-11-30T22:41:34.665Z,12.30
2022-11-30T22:44:02.778Z,16.17
2022-11-30T22:46:33.874Z,15.20
2022-11-30T22:49:02.646Z,15.27
2022-11-30T22:51:32.605Z,14.68
2022-11-30T22:54:01.204Z,14.52
2022-11-30T22:56:31.281Z,15.43
2022-11-30T22:59:01.091Z,16.23
2022-11-30T23:01:31.966Z,15.23
2022-11-30T23:04:04.197Z,14.90
2022-11-30T23:06:32.342Z,16.15
2022-11-30T23:09:00.730Z,13.95
2022-11-30T23:11:29.789Z,14.90
2022-11-30T23:13:57.641Z,16.15
2022-11-30T23:16:26.053Z,15.02
2022-11-30T23:18:57.156Z,14.85
2022-11-30T23:21:26.709Z,14.52
2022-11-30T23:23:56.305Z,13.55
2022-11-30T23:26:26.259Z,15.05
2022-11-30T23:28:55.436Z,16.35
2022-11-30T23:31:33.808Z,15.50
2022-11-30T23:34:07.367Z,14.45
2022-11-30T23:36:36.862Z,17.35
2022-11-30T23:39:06.300Z,16.88
2022-11-30T23:41:34.315Z,19.00
2022-11-30T23:44:02.552Z,18.23
2022-11-30T23:46:30.933Z,17.27
2022-11-30T23:48:59.038Z,20.20
2022-11-30T23:51:28.390Z,19.02
2022-11-30T23:53:56.286Z,18.80
2022-11-30T23:56:25.306Z,18.30
2022-11-30T23:58:53.536Z,18.95
